Time;durP1;ratioP1;P1;durP2;ratioP2;P2;SDS_P1;SDS_P2;PMS_P1;PMS_P2;Temp;Humidity;BMP_temperature;BMP_pressure;BME280_temperature;BME280_humidity;BME280_pressure;Samples;Min_cycle;Max_cycle;Signal;HPM_P1;HPM_P2
2021/08/13 00:04:44;;;;;;;19.37;11.23;;;;;;;17.55;100.00;99438.81;10327716;28;20212;-75
2021/08/13 00:10:04;;;;;;;18.80;9.70;;;;;;;17.74;100.00;99430.34;10333226;28;20532;-75
2021/08/13 00:15:23;;;;;;;16.57;9.93;;;;;;;17.54;100.00;99425.34;10334429;28;20174;-76
2021/08/13 00:20:41;;;;;;;19.73;11.27;;;;;;;17.36;100.00;99420.25;10334130;28;20209;-76
2021/08/13 00:26:00;;;;;;;13.70;9.63;;;;;;;17.38;100.00;99428.16;10332942;28;20185;-76
2021/08/13 00:31:19;;;;;;;12.13;9.30;;;;;;;17.33;100.00;99431.44;10333746;28;20189;-76
2021/08/13 00:36:39;;;;;;;9.90;8.83;;;;;;;17.38;100.00;99437.25;10333814;28;20550;-75
2021/08/13 00:41:58;;;;;;;14.43;9.60;;;;;;;17.16;100.00;99450.09;10331906;28;20228;-75
2021/08/13 00:47:17;;;;;;;14.27;9.30;;;;;;;17.01;100.00;99465.56;10333476;28;20261;-76
2021/08/13 00:52:38;;;;;;;16.20;10.37;;;;;;;16.79;100.00;99475.59;10333536;28;20209;-76
2021/08/13 00:57:57;;;;;;;14.60;10.27;;;;;;;16.87;100.00;99473.44;10345623;28;20189;-76
2021/08/13 01:03:17;;;;;;;13.23;10.90;;;;;;;16.89;100.00;99471.78;10345765;28;20687;-74
2021/08/13 01:08:36;;;;;;;15.50;9.60;;;;;;;16.83;100.00;99473.50;10346802;28;20177;-76
2021/08/13 01:14:11;;;;;;;17.33;11.17;;;;;;;16.80;100.00;99479.94;10346470;28;20762;-76
2021/08/13 01:19:52;;;;;;;15.57;9.60;;;;;;;16.84;100.00;99472.31;10345329;28;20594;-74
2021/08/13 01:25:14;;;;;;;12.77;10.03;;;;;;;16.85;100.00;99465.53;10344165;28;20651;-75
2021/08/13 01:30:34;;;;;;;20.13;10.37;;;;;;;16.86;100.00;99456.00;10345885;28;20182;-75
2021/08/13 01:35:54;;;;;;;13.60;9.53;;;;;;;16.78;100.00;99462.94;10345137;28;20209;-75
2021/08/13 01:41:14;;;;;;;13.70;10.00;;;;;;;16.74;100.00;99455.88;10344251;28;20702;-76
2021/08/13 01:46:34;;;;;;;12.33;9.43;;;;;;;16.81;100.00;99472.38;10345876;28;20182;-75
2021/08/13 01:51:54;;;;;;;13.23;9.43;;;;;;;16.65;100.00;99461.25;10345839;28;20252;-74
2021/08/13 01:57:13;;;;;;;13.33;9.57;;;;;;;16.58;100.00;99471.72;10343189;28;20271;-75
2021/08/13 02:02:34;;;;;;;11.87;9.67;;;;;;;16.69;100.00;99469.50;10344373;28;20204;-74
2021/08/13 02:07:56;;;;;;;14.37;10.27;;;;;;;16.47;100.00;99465.63;10338792;28;20185;-75
2021/08/13 02:13:15;;;;;;;11.60;9.53;;;;;;;16.40;100.00;99462.97;10336690;28;20185;-74
2021/08/13 02:18:40;;;;;;;12.00;10.20;;;;;;;16.46;100.00;99461.28;10337736;28;20209;-75
2021/08/13 02:23:59;;;;;;;19.70;9.27;;;;;;;16.47;100.00;99462.84;10336020;28;20293;-75
2021/08/13 02:29:18;;;;;;;18.23;10.50;;;;;;;16.32;100.00;99465.13;10338304;28;20193;-74
2021/08/13 02:34:38;;;;;;;13.20;9.80;;;;;;;16.27;100.00;99448.94;10338289;28;20217;-75
2021/08/13 02:40:33;;;;;;;14.83;9.50;;;;;;;16.30;100.00;99444.56;10335666;28;20205;-75
2021/08/13 02:45:56;;;;;;;11.07;8.83;;;;;;;16.19;100.00;99449.50;10337718;28;20185;-75
2021/08/13 02:51:17;;;;;;;10.40;9.33;;;;;;;16.19;100.00;99458.59;10337672;28;20201;-75
2021/08/13 02:56:37;;;;;;;11.83;9.80;;;;;;;16.24;100.00;99460.91;10335493;28;20181;-75
2021/08/13 03:01:58;;;;;;;16.57;9.73;;;;;;;16.04;100.00;99448.22;10336911;28;20213;-76
2021/08/13 03:07:19;;;;;;;11.03;7.90;;;;;;;15.98;100.00;99441.63;10336055;28;20186;-75
2021/08/13 03:12:40;;;;;;;19.13;10.40;;;;;;;16.00;100.00;99456.63;10335408;28;20170;-74
2021/08/13 03:18:00;;;;;;;14.20;8.93;;;;;;;16.16;100.00;99462.25;10336302;28;20229;-76
2021/08/13 03:23:20;;;;;;;12.83;9.67;;;;;;;16.01;100.00;99460.16;10335836;28;20201;-75
2021/08/13 03:28:39;;;;;;;12.57;9.30;;;;;;;15.98;100.00;99464.59;10334791;28;20181;-75
2021/08/13 03:33:59;;;;;;;16.53;10.40;;;;;;;15.82;100.00;99455.41;10335604;28;20620;-76
2021/08/13 03:39:19;;;;;;;30.43;10.30;;;;;;;15.86;100.00;99450.56;10333597;28;20264;-76
2021/08/13 03:44:37;;;;;;;18.13;11.33;;;;;;;15.85;100.00;99443.44;10334639;28;20221;-76
2021/08/13 03:49:56;;;;;;;17.10;10.10;;;;;;;15.97;100.00;99445.59;10335161;28;20185;-76
2021/08/13 03:55:16;;;;;;;18.07;10.97;;;;;;;15.74;100.00;99459.53;10333943;28;20185;-76
2021/08/13 04:00:35;;;;;;;14.70;10.10;;;;;;;15.73;100.00;99476.56;10334366;28;20205;-77
2021/08/13 04:05:54;;;;;;;12.63;10.10;;;;;;;15.65;100.00;99475.13;10334791;28;20185;-77
2021/08/13 04:11:13;;;;;;;17.27;11.20;;;;;;;15.72;100.00;99463.91;10333277;28;20169;-76
2021/08/13 04:16:31;;;;;;;14.07;10.50;;;;;;;15.82;100.00;99465.69;10332860;28;20205;-76
2021/08/13 04:21:51;;;;;;;17.63;10.47;;;;;;;15.85;100.00;99445.44;10333923;28;20656;-77
2021/08/13 04:27:09;;;;;;;12.10;9.40;;;;;;;15.89;100.00;99441.41;10332791;28;20613;-76
2021/08/13 04:32:29;;;;;;;13.37;10.27;;;;;;;15.98;100.00;99461.03;10332534;28;20177;-75
2021/08/13 04:37:48;;;;;;;16.50;10.63;;;;;;;15.96;100.00;99460.69;10332495;28;20640;-75
2021/08/13 04:43:07;;;;;;;11.80;9.67;;;;;;;16.03;100.00;99464.06;10331842;28;20229;-77
2021/08/13 04:48:26;;;;;;;12.03;9.90;;;;;;;16.13;100.00;99474.19;10333539;28;20181;-77
2021/08/13 04:53:45;;;;;;;14.70;9.30;;;;;;;16.38;100.00;99513.38;10332310;28;20189;-77
2021/08/13 04:59:04;;;;;;;11.73;9.70;;;;;;;16.18;100.00;99520.91;10333311;28;20189;-76
2021/08/13 05:04:23;;;;;;;15.53;10.77;;;;;;;16.24;100.00;99512.84;10332763;28;20217;-77
2021/08/13 05:09:43;;;;;;;14.50;10.90;;;;;;;16.36;100.00;99517.81;10331901;28;20645;-77
2021/08/13 05:15:03;;;;;;;15.93;10.93;;;;;;;16.52;100.00;99524.19;10332115;28;20209;-77
2021/08/13 05:20:24;;;;;;;15.13;11.60;;;;;;;16.61;100.00;99518.09;10332801;28;20287;-76
2021/08/13 05:25:43;;;;;;;11.60;9.10;;;;;;;16.86;100.00;99519.91;10330217;28;20268;-77
2021/08/13 05:31:02;;;;;;;12.67;10.83;;;;;;;16.93;100.00;99516.16;10330783;28;20177;-76
2021/08/13 05:36:20;;;;;;;14.90;10.73;;;;;;;16.94;100.00;99534.41;10300050;28;20268;-76
2021/08/13 05:41:39;;;;;;;11.23;9.10;;;;;;;17.11;100.00;99559.06;10333118;28;20233;-76
2021/08/13 05:46:58;;;;;;;13.30;9.83;;;;;;;17.36;100.00;99572.41;10338749;28;20268;-77
2021/08/13 05:52:17;;;;;;;12.00;9.37;;;;;;;17.29;100.00;99594.84;10340009;28;20205;-76
2021/08/13 05:57:36;;;;;;;17.03;9.90;;;;;;;17.36;100.00;99591.88;10338434;28;20268;-77
2021/08/13 06:02:58;;;;;;;14.07;10.33;;;;;;;17.71;100.00;99589.06;10339262;28;20572;-76
2021/08/13 06:08:17;;;;;;;11.80;9.67;;;;;;;18.34;100.00;99565.97;10339175;28;20185;-77
2021/08/13 06:13:36;;;;;;;13.80;10.70;;;;;;;19.01;100.00;99543.28;10336300;28;20189;-76
2021/08/13 06:18:55;;;;;;;14.10;10.17;;;;;;;19.50;100.00;99536.97;10337821;28;20661;-76
2021/08/13 06:24:14;;;;;;;14.30;10.67;;;;;;;19.65;100.00;99523.31;10335684;28;20219;-75
2021/08/13 06:29:34;;;;;;;12.37;10.93;;;;;;;19.52;100.00;99526.13;10338117;28;20194;-75
2021/08/13 06:34:53;;;;;;;16.37;10.70;;;;;;;19.51;100.00;99515.44;10338320;28;20181;-76
2021/08/13 06:40:13;;;;;;;11.40;10.37;;;;;;;19.91;100.00;99513.66;10336839;28;20209;-77
2021/08/13 06:45:32;;;;;;;11.33;10.10;;;;;;;20.29;98.91;99529.88;10336391;28;20194;-76
2021/08/13 06:50:53;;;;;;;11.07;10.00;;;;;;;21.01;93.82;99547.16;10336646;28;20228;-76
2021/08/13 06:56:12;;;;;;;22.90;10.60;;;;;;;21.67;88.22;99550.91;10336163;28;20174;-77
2021/08/13 07:01:32;;;;;;;15.97;10.90;;;;;;;21.56;84.69;99557.44;10336169;28;20201;-76
2021/08/13 07:06:51;;;;;;;13.87;10.93;;;;;;;21.48;84.09;99539.34;10336027;28;20185;-77
2021/08/13 07:12:10;;;;;;;14.10;11.63;;;;;;;21.65;85.41;99546.25;10334092;28;20185;-76
2021/08/13 07:17:29;;;;;;;15.30;10.90;;;;;;;22.33;82.63;99538.91;10335646;28;20201;-76
2021/08/13 07:22:48;;;;;;;19.87;10.90;;;;;;;22.71;80.80;99525.16;10336330;28;20223;-76
2021/08/13 07:28:07;;;;;;;13.63;10.60;;;;;;;22.84;81.17;99526.56;10334055;28;20182;-76
2021/08/13 07:33:26;;;;;;;12.70;10.10;;;;;;;23.46;76.43;99528.41;10329222;28;20193;-77
2021/08/13 07:38:45;;;;;;;14.93;11.00;;;;;;;23.60;75.60;99533.31;10335781;28;20212;-77
2021/08/13 07:44:04;;;;;;;12.23;11.03;;;;;;;23.82;74.52;99525.44;10332653;28;20703;-77
2021/08/13 07:49:23;;;;;;;11.70;10.10;;;;;;;24.15;73.80;99526.13;10335521;28;20257;-76
2021/08/13 07:54:42;;;;;;;11.73;10.50;;;;;;;24.67;70.51;99545.91;10332949;28;20643;-78
2021/08/13 08:00:01;;;;;;;14.30;10.50;;;;;;;25.39;66.67;99537.47;10334094;28;20174;-77
2021/08/13 08:05:21;;;;;;;16.53;10.23;;;;;;;26.12;63.77;99550.13;10334113;28;20181;-76
2021/08/13 08:10:45;;;;;;;19.20;10.03;;;;;;;26.53;64.65;99548.88;10332653;28;20177;-77
2021/08/13 08:16:05;;;;;;;11.60;9.80;;;;;;;27.03;61.70;99550.97;10334144;28;20206;-77
2021/08/13 08:21:24;;;;;;;11.07;9.97;;;;;;;27.71;58.55;99551.81;10334078;28;20213;-76
2021/08/13 08:26:43;;;;;;;14.50;9.63;;;;;;;27.73;56.53;99555.72;10332554;28;20185;-77
2021/08/13 08:32:02;;;;;;;16.03;9.67;;;;;;;27.53;59.82;99549.34;10330354;28;20193;-76
2021/08/13 08:37:22;;;;;;;14.37;9.90;;;;;;;26.21;61.52;99560.50;10313295;28;20264;-76
2021/08/13 08:42:46;;;;;;;11.63;10.43;;;;;;;26.49;64.49;99562.41;10312039;28;20228;-76
2021/08/13 08:48:07;;;;;;;15.67;10.30;;;;;;;27.16;61.64;99548.53;10333522;28;20268;-77
2021/08/13 08:53:28;;;;;;;22.47;10.03;;;;;;;27.47;59.09;99569.09;10332509;28;20177;-75
2021/08/13 08:58:47;;;;;;;11.23;9.30;;;;;;;27.04;60.67;99557.38;10331871;28;20189;-77
2021/08/13 09:04:07;;;;;;;11.80;8.77;;;;;;;27.26;59.88;99558.38;10332631;28;20244;-77
2021/08/13 09:09:26;;;;;;;10.13;8.30;;;;;;;27.57;61.70;99558.38;10331767;28;20185;-76
2021/08/13 09:14:45;;;;;;;11.60;9.10;;;;;;;28.27;58.97;99569.41;10334306;28;20711;-76
2021/08/13 09:20:04;;;;;;;11.10;8.67;;;;;;;28.88;55.01;99572.47;10340541;28;20181;-77
2021/08/13 09:25:25;;;;;;;12.73;9.00;;;;;;;29.79;53.26;99567.41;10338781;28;20252;-77
2021/08/13 09:30:44;;;;;;;13.53;9.50;;;;;;;29.37;54.23;99581.09;10340878;28;20173;-76
2021/08/13 09:36:03;;;;;;;10.60;9.50;;;;;;;30.23;52.11;99581.53;10327947;28;20182;-77
2021/08/13 09:41:22;;;;;;;10.03;9.10;;;;;;;30.09;51.45;99591.09;10338794;28;20237;-76
2021/08/13 09:46:59;;;;;;;12.97;9.00;;;;;;;31.24;48.60;99587.81;10339169;28;20640;-76
2021/08/13 09:52:20;;;;;;;9.60;8.90;;;;;;;32.28;47.17;99586.88;10338536;28;20186;-75
2021/08/13 09:57:48;;;;;;;10.00;9.00;;;;;;;32.65;46.62;99580.00;10303181;28;20264;-77
2021/08/13 10:03:07;;;;;;;10.17;9.00;;;;;;;33.06;46.83;99586.16;10298016;28;20202;-77
2021/08/13 10:08:40;;;;;;;10.97;9.33;;;;;;;32.93;44.05;99588.16;10298998;28;20182;-77
2021/08/13 10:13:59;;;;;;;9.33;8.33;;;;;;;32.81;44.01;99578.22;10298037;28;20684;-76
2021/08/13 10:19:19;;;;;;;11.77;9.40;;;;;;;33.03;43.65;99563.66;10298744;28;20660;-77
2021/08/13 10:24:38;;;;;;;9.97;9.07;;;;;;;32.88;44.37;99560.50;10298515;28;20213;-78
2021/08/13 10:29:58;;;;;;;10.67;9.70;;;;;;;32.62;45.33;99558.25;10336716;28;20190;-77
2021/08/13 10:35:18;;;;;;;11.13;9.27;;;;;;;31.77;47.32;99563.06;10338144;28;20193;-77
2021/08/13 10:40:38;;;;;;;11.90;9.53;;;;;;;32.22;46.98;99566.25;10336601;28;20593;-77
2021/08/13 10:46:00;;;;;;;13.33;9.33;;;;;;;31.24;47.99;99560.13;10336963;28;20181;-78
2021/08/13 10:51:32;;;;;;;10.70;8.33;;;;;;;31.58;47.30;99561.44;10337799;28;20181;-76
2021/08/13 10:56:51;;;;;;;11.77;10.37;;;;;;;31.72;46.34;99563.91;10336185;28;20178;-76
2021/08/13 11:02:16;;;;;;;11.47;8.63;;;;;;;32.99;47.10;99557.50;10336458;28;20569;-78
2021/08/13 11:07:58;;;;;;;11.27;8.93;;;;;;;34.34;44.21;99538.56;10335991;28;20181;-78
2021/08/13 11:13:21;;;;;;;9.67;8.67;;;;;;;36.00;40.34;99544.25;10334740;28;20204;-78
2021/08/13 11:18:54;;;;;;;10.47;9.43;;;;;;;35.04;40.88;99541.22;10335772;28;20193;-78
2021/08/13 11:24:15;;;;;;;12.50;9.13;;;;;;;34.55;41.06;99531.63;10334817;28;20224;-79
2021/08/13 11:29:35;;;;;;;13.50;9.83;;;;;;;33.66;42.94;99542.44;10336227;28;20549;-76
2021/08/13 11:35:10;;;;;;;9.97;9.17;;;;;;;32.70;45.51;99547.03;10335692;28;20188;-77
2021/08/13 11:40:29;;;;;;;10.30;9.43;;;;;;;33.21;47.38;99552.25;10334217;28;20256;-77
2021/08/13 11:45:48;;;;;;;9.60;8.80;;;;;;;32.60;48.44;99543.03;10335355;28;20568;-76
2021/08/13 11:51:08;;;;;;;11.47;8.90;;;;;;;33.81;45.12;99542.69;10335204;28;20635;-77
2021/08/13 11:56:30;;;;;;;10.33;9.00;;;;;;;34.74;43.56;99537.97;10333458;28;20196;-79
2021/08/13 12:01:51;;;;;;;9.80;8.80;;;;;;;34.94;41.80;99545.81;10334878;28;20216;-77
2021/08/13 12:07:11;;;;;;;9.50;8.70;;;;;;;35.74;40.65;99535.06;10333867;28;20173;-77
2021/08/13 12:12:31;;;;;;;10.73;8.93;;;;;;;35.58;37.08;99530.53;10333395;28;20193;-78
2021/08/13 12:17:53;;;;;;;10.70;7.80;;;;;;;34.95;35.82;99523.72;10334268;28;20185;-78
2021/08/13 12:23:13;;;;;;;9.10;8.30;;;;;;;34.82;38.33;99512.31;10333008;28;20216;-78
2021/08/13 12:28:33;;;;;;;8.33;7.63;;;;;;;35.84;36.02;99516.03;10332384;28;20659;-77
2021/08/13 12:33:53;;;;;;;10.47;8.97;;;;;;;34.60;37.40;99522.19;10333847;28;20184;-76
2021/08/13 12:39:21;;;;;;;9.60;8.80;;;;;;;33.17;39.75;99528.22;10331709;28;20208;-78
2021/08/13 12:44:42;;;;;;;9.50;8.70;;;;;;;33.01;41.93;99526.38;10331941;28;20232;-77
2021/08/13 12:50:02;;;;;;;9.50;8.70;;;;;;;32.46;42.64;99529.97;10307001;28;20186;-76
2021/08/13 12:55:21;;;;;;;11.70;8.57;;;;;;;31.83;45.09;99532.47;10331161;28;20181;-77
2021/08/13 13:00:40;;;;;;;9.13;8.20;;;;;;;31.97;44.11;99534.16;10333201;28;20212;-78
2021/08/13 13:05:59;;;;;;;9.27;8.33;;;;;;;32.87;41.06;99521.91;10333249;28;20181;-79
2021/08/13 13:11:20;;;;;;;12.87;9.07;;;;;;;33.00;42.65;99519.88;10330765;28;20703;-76
2021/08/13 13:17:02;;;;;;;10.00;9.00;;;;;;;32.21;45.09;99517.09;10331620;28;20260;-76
2021/08/13 13:22:23;;;;;;;10.60;8.73;;;;;;;31.56;45.29;99501.44;10332569;28;20297;-76
2021/08/13 13:27:59;;;;;;;10.17;9.17;;;;;;;31.90;47.27;99503.44;10331614;28;20185;-76
2021/08/13 13:33:22;;;;;;;13.83;9.30;;;;;;;32.11;43.61;99498.03;10331572;28;20703;-76
2021/08/13 13:38:42;;;;;;;10.40;8.63;;;;;;;33.22;40.92;99490.28;10332507;28;20173;-76
2021/08/13 13:44:01;;;;;;;9.27;8.53;;;;;;;33.18;41.44;99502.00;10331407;28;20217;-77
2021/08/13 13:49:20;;;;;;;10.10;8.67;;;;;;;32.32;41.62;99488.44;10330896;28;20540;-76
2021/08/13 13:54:39;;;;;;;18.83;8.70;;;;;;;32.29;42.56;99494.44;10330348;28;20178;-76
2021/08/13 13:59:57;;;;;;;9.37;8.57;;;;;;;32.28;43.09;99492.91;10332223;28;20174;-77
2021/08/13 14:05:17;;;;;;;8.63;7.57;;;;;;;32.87;40.99;99490.56;10338758;28;20178;-78
2021/08/13 14:10:39;;;;;;;9.30;8.50;;;;;;;32.85;41.67;99476.06;10338019;28;20193;-77
2021/08/13 14:15:58;;;;;;;9.40;8.60;;;;;;;33.05;40.80;99481.19;10338693;28;20182;-77
2021/08/13 14:21:17;;;;;;;9.30;7.73;;;;;;;31.88;42.33;99488.97;10338726;28;20201;-77
2021/08/13 14:26:36;;;;;;;16.20;9.33;;;;;;;32.47;41.85;99485.94;10337390;28;20185;-78
2021/08/13 14:31:55;;;;;;;10.23;9.33;;;;;;;33.18;40.49;99472.72;10337161;28;20173;-77
2021/08/13 14:37:14;;;;;;;9.87;8.90;;;;;;;32.90;39.93;99472.34;10337277;28;20181;-77
2021/08/13 14:42:32;;;;;;;7.53;6.93;;;;;;;33.53;37.82;99456.75;10336487;28;20252;-78
2021/08/13 14:47:52;;;;;;;10.63;9.53;;;;;;;34.89;38.15;99457.31;10336388;28;20559;-76
2021/08/13 14:53:10;;;;;;;8.87;8.17;;;;;;;35.63;35.99;99443.72;10337620;28;20204;-77
2021/08/13 14:58:32;;;;;;;11.17;8.90;;;;;;;34.37;37.43;99451.75;10336027;28;20255;-76
2021/08/13 15:03:51;;;;;;;9.60;8.70;;;;;;;32.94;39.62;99453.63;10336811;28;20295;-77
2021/08/13 15:09:10;;;;;;;10.40;9.37;;;;;;;31.67;42.45;99453.75;10335907;28;20187;-77
2021/08/13 15:14:29;;;;;;;13.83;8.87;;;;;;;32.71;41.15;99452.44;10335006;28;20205;-77
2021/08/13 15:19:48;;;;;;;9.00;8.20;;;;;;;32.93;41.81;99445.63;10337077;28;20177;-76
2021/08/13 15:25:08;;;;;;;9.40;8.60;;;;;;;32.54;40.23;99448.28;10335138;28;20189;-76
2021/08/13 15:30:27;;;;;;;8.13;7.53;;;;;;;32.54;41.48;99448.28;10336476;28;20185;-76
2021/08/13 15:35:46;;;;;;;10.30;9.40;;;;;;;33.33;41.00;99439.50;10336011;28;20185;-76
2021/08/13 15:41:05;;;;;;;9.00;8.30;;;;;;;33.42;39.25;99434.16;10333399;28;20217;-77
2021/08/13 15:46:24;;;;;;;9.10;8.30;;;;;;;31.95;40.43;99442.81;10335193;28;20648;-77
2021/08/13 15:51:43;;;;;;;10.30;9.30;;;;;;;31.54;43.81;99446.41;10335506;28;20170;-76
2021/08/13 15:57:03;;;;;;;9.87;8.87;;;;;;;31.64;42.38;99443.44;10332764;28;20962;-76
2021/08/13 16:02:22;;;;;;;9.93;9.07;;;;;;;31.11;44.46;99443.44;10334707;28;20213;-76
2021/08/13 16:07:41;;;;;;;12.70;8.73;;;;;;;30.97;45.85;99438.09;10334985;28;20635;-75
2021/08/13 16:13:04;;;;;;;10.30;9.30;;;;;;;30.70;45.18;99438.31;10333101;28;20197;-75
2021/08/13 16:18:23;;;;;;;10.10;8.80;;;;;;;30.68;46.30;99423.84;10333593;28;20181;-76
2021/08/13 16:23:42;;;;;;;12.33;8.77;;;;;;;30.69;46.10;99429.03;10333240;28;20213;-77
2021/08/13 16:29:00;;;;;;;31.40;8.50;;;;;;;30.50;46.50;99413.91;10334155;28;20255;-77
2021/08/13 16:34:20;;;;;;;11.53;8.90;;;;;;;30.37;46.37;99422.22;10333875;28;20165;-75
2021/08/13 16:39:39;;;;;;;11.87;9.60;;;;;;;30.42;47.24;99426.31;10332626;28;20600;-77
2021/08/13 16:44:58;;;;;;;9.77;8.47;;;;;;;30.63;46.93;99419.75;10332255;28;20228;-75
2021/08/13 16:50:17;;;;;;;9.73;8.60;;;;;;;30.66;47.67;99404.50;10299852;28;20177;-76
2021/08/13 16:55:37;;;;;;;14.70;9.67;;;;;;;30.35;48.49;99402.09;10332334;28;20181;-77
2021/08/13 17:00:56;;;;;;;9.83;8.70;;;;;;;30.19;50.16;99413.53;10333137;28;20209;-76
2021/08/13 17:06:15;;;;;;;10.23;9.27;;;;;;;29.97;51.59;99405.16;10299895;28;20219;-76
2021/08/13 17:11:36;;;;;;;14.30;9.47;;;;;;;29.88;52.40;99404.66;10291636;28;20217;-77
2021/08/13 17:16:55;;;;;;;9.77;8.93;;;;;;;29.62;52.58;99415.59;10316082;28;20272;-75
2021/08/13 17:22:14;;;;;;;12.40;10.30;;;;;;;29.51;54.96;99419.22;10323195;28;20245;-74
2021/08/13 17:27:34;;;;;;;10.53;9.43;;;;;;;29.41;54.65;99414.34;10308197;28;20185;-74
2021/08/13 17:32:53;;;;;;;11.30;10.20;;;;;;;29.08;55.84;99416.44;10331598;28;20201;-76
2021/08/13 17:38:12;;;;;;;12.47;11.30;;;;;;;28.91;57.77;99410.78;10332131;28;20182;-76
2021/08/13 17:43:31;;;;;;;25.33;22.40;;;;;;;29.67;55.95;99412.72;10298220;28;20590;-77
2021/08/13 17:48:50;;;;;;;24.60;18.70;;;;;;;29.52;57.20;99417.16;10298648;28;20182;-77
2021/08/13 17:54:09;;;;;;;18.93;11.77;;;;;;;29.11;59.85;99415.41;10300080;28;20182;-75
2021/08/13 17:59:28;;;;;;;51.07;38.50;;;;;;;28.65;61.79;99415.88;10338953;28;20189;-77
2021/08/13 18:04:47;;;;;;;14.50;9.77;;;;;;;28.38;61.44;99430.75;10338294;28;20209;-77
2021/08/13 18:10:07;;;;;;;10.43;9.43;;;;;;;27.93;62.97;99436.00;10337627;28;20284;-77
2021/08/13 18:15:26;;;;;;;13.90;10.10;;;;;;;27.69;63.60;99435.63;10338419;28;20181;-76
2021/08/13 18:20:45;;;;;;;18.90;9.67;;;;;;;27.27;65.48;99423.50;10338219;28;20569;-75
2021/08/13 18:26:04;;;;;;;14.47;12.70;;;;;;;27.12;67.44;99432.16;10336144;28;20185;-77
2021/08/13 18:31:23;;;;;;;12.80;9.60;;;;;;;26.98;67.11;99438.69;10338480;28;20644;-77
2021/08/13 18:36:42;;;;;;;17.20;9.73;;;;;;;26.79;68.06;99431.88;10338229;28;20185;-76
2021/08/13 18:42:01;;;;;;;13.23;10.70;;;;;;;26.51;69.88;99441.34;10336131;28;20224;-77
2021/08/13 18:47:20;;;;;;;11.17;10.07;;;;;;;26.28;70.85;99442.38;10336846;28;20193;-76
2021/08/13 18:52:40;;;;;;;13.00;9.93;;;;;;;26.31;72.32;99443.41;10336871;28;20181;-75
2021/08/13 18:57:59;;;;;;;11.17;10.00;;;;;;;26.11;71.65;99455.50;10335121;28;20186;-77
2021/08/13 19:03:20;;;;;;;20.73;11.63;;;;;;;25.94;73.61;99465.00;10336918;28;20248;-75
2021/08/13 19:08:39;;;;;;;16.20;11.30;;;;;;;25.99;72.97;99469.97;10336874;28;20237;-76
2021/08/13 19:13:58;;;;;;;14.70;10.90;;;;;;;25.95;77.37;99484.28;10335814;28;20177;-75
2021/08/13 19:19:17;;;;;;;11.63;10.53;;;;;;;25.72;74.94;99486.47;10335425;28;20177;-75
2021/08/13 19:24:36;;;;;;;14.17;11.40;;;;;;;25.77;75.16;99508.34;10333621;28;20205;-75
2021/08/13 19:29:55;;;;;;;14.20;10.00;;;;;;;25.65;74.78;99509.41;10336227;28;20268;-75
2021/08/13 19:35:14;;;;;;;12.13;10.93;;;;;;;25.38;76.27;99513.38;10334844;28;20188;-74
2021/08/13 19:40:33;;;;;;;13.43;11.20;;;;;;;25.59;73.47;99512.19;10302148;28;20324;-75
2021/08/13 19:45:52;;;;;;;12.63;11.20;;;;;;;25.53;73.55;99507.72;10329527;28;20185;-75
2021/08/13 19:51:11;;;;;;;18.47;11.77;;;;;;;25.30;75.23;99517.09;10335087;28;20193;-76
2021/08/13 19:56:30;;;;;;;20.73;11.80;;;;;;;25.13;76.43;99527.31;10324862;28;20189;-76
2021/08/13 20:01:49;;;;;;;17.03;10.80;;;;;;;25.00;77.02;99538.03;10333373;28;20217;-74
2021/08/13 20:07:08;;;;;;;12.27;10.80;;;;;;;24.89;77.22;99531.44;10333693;28;20648;-75
2021/08/13 20:12:27;;;;;;;12.90;11.07;;;;;;;24.75;79.37;99523.78;10333286;28;20715;-76
2021/08/13 20:17:47;;;;;;;13.30;11.23;;;;;;;24.38;81.89;99534.56;10332527;28;20264;-76
2021/08/13 20:23:06;;;;;;;12.50;11.20;;;;;;;24.26;83.34;99534.81;10331725;28;20204;-76
2021/08/13 20:28:25;;;;;;;12.37;11.03;;;;;;;23.92;85.25;99538.16;10331424;28;20185;-77
2021/08/13 20:33:48;;;;;;;13.40;11.40;;;;;;;23.68;87.62;99536.56;10333500;28;20181;-76
2021/08/13 20:39:07;;;;;;;13.70;12.13;;;;;;;23.31;90.27;99540.78;10332725;28;20181;-76
2021/08/13 20:44:26;;;;;;;16.43;12.07;;;;;;;23.07;91.58;99553.97;10331073;28;20229;-76
2021/08/13 20:49:44;;;;;;;14.87;12.77;;;;;;;23.05;91.84;99559.28;10333078;28;20196;-75
2021/08/13 20:55:04;;;;;;;19.53;11.80;;;;;;;22.84;92.89;99556.66;10330910;28;20197;-76
2021/08/13 21:00:23;;;;;;;14.87;13.20;;;;;;;22.78;92.20;99562.13;10333104;28;20193;-76
2021/08/13 21:05:42;;;;;;;14.83;13.33;;;;;;;22.73;91.81;99559.94;10332817;28;20259;-76
2021/08/13 21:11:01;;;;;;;14.13;12.47;;;;;;;22.68;92.00;99568.97;10333521;28;20205;-75
2021/08/13 21:16:20;;;;;;;13.57;11.67;;;;;;;22.59;92.67;99571.00;10341086;28;20186;-76
2021/08/13 21:21:41;;;;;;;14.60;13.13;;;;;;;22.47;93.28;99565.56;10340306;28;20213;-76
2021/08/13 21:27:00;;;;;;;12.57;11.30;;;;;;;22.50;93.36;99562.59;10338989;28;20272;-76
2021/08/13 21:32:19;;;;;;;13.10;11.43;;;;;;;22.38;94.42;99566.31;10339206;28;20648;-74
2021/08/13 21:37:38;;;;;;;13.57;11.70;;;;;;;22.02;97.43;99573.88;10340630;28;20169;-76
2021/08/13 21:42:57;;;;;;;15.00;11.93;;;;;;;21.86;99.29;99566.53;10338562;28;20233;-75
2021/08/13 21:48:16;;;;;;;15.47;11.07;;;;;;;21.71;100.00;99567.56;10339078;28;20185;-75
2021/08/13 21:53:35;;;;;;;14.23;12.10;;;;;;;21.49;100.00;99566.84;10338473;28;20205;-75
2021/08/13 21:58:54;;;;;;;15.30;11.57;;;;;;;21.40;100.00;99569.63;10336753;28;20186;-74
2021/08/13 22:04:13;;;;;;;12.40;11.10;;;;;;;21.39;99.13;99572.88;10338976;28;20217;-75
2021/08/13 22:09:32;;;;;;;13.40;11.93;;;;;;;21.34;98.53;99582.66;10337925;28;20323;-74
2021/08/13 22:14:51;;;;;;;15.57;11.40;;;;;;;21.37;99.89;99584.53;10339199;28;20185;-74
2021/08/13 22:20:12;;;;;;;17.20;12.03;;;;;;;21.38;100.00;99576.91;10322951;28;20189;-75
2021/08/13 22:25:36;;;;;;;13.80;11.50;;;;;;;21.11;100.00;99596.34;10336269;28;20190;-76
2021/08/13 22:30:54;;;;;;;14.83;12.60;;;;;;;21.09;100.00;99593.22;10338605;28;20216;-75
2021/08/13 22:36:17;;;;;;;14.70;12.13;;;;;;;20.99;100.00;99586.81;10336673;28;20197;-77
2021/08/13 22:41:36;;;;;;;14.37;12.87;;;;;;;21.05;100.00;99590.56;10336554;28;20225;-75
2021/08/13 22:46:55;;;;;;;14.40;12.27;;;;;;;20.88;100.00;99588.44;10337597;28;20189;-75
2021/08/13 22:52:14;;;;;;;12.90;11.60;;;;;;;20.73;100.00;99590.19;10336606;28;20186;-75
2021/08/13 22:57:33;;;;;;;13.77;12.40;;;;;;;20.61;100.00;99590.22;10336445;28;20193;-75
2021/08/13 23:02:52;;;;;;;19.40;12.57;;;;;;;20.58;100.00;99591.94;10336792;28;20296;-76
2021/08/13 23:08:11;;;;;;;16.80;12.47;;;;;;;20.62;100.00;99600.94;10337038;28;20201;-77
2021/08/13 23:13:30;;;;;;;13.83;12.37;;;;;;;20.13;100.00;99610.28;10334712;28;20177;-75
2021/08/13 23:18:49;;;;;;;15.60;12.00;;;;;;;20.10;100.00;99608.38;10336122;28;20181;-74
2021/08/13 23:24:08;;;;;;;15.00;12.33;;;;;;;20.16;100.00;99609.38;10334605;28;20217;-75
2021/08/13 23:29:27;;;;;;;14.27;12.47;;;;;;;20.13;100.00;99605.47;10335258;28;20182;-75
2021/08/13 23:34:46;;;;;;;15.33;13.00;;;;;;;20.05;100.00;99618.13;10334877;28;20185;-74
2021/08/13 23:40:06;;;;;;;13.83;12.03;;;;;;;20.09;100.00;99618.78;10333168;28;20181;-74
2021/08/13 23:45:25;;;;;;;14.90;13.30;;;;;;;19.91;100.00;99628.16;10335539;28;20220;-74
2021/08/13 23:50:44;;;;;;;13.97;12.57;;;;;;;19.83;100.00;99630.41;10335525;28;20197;-74
2021/08/13 23:56:03;;;;;;;17.03;13.90;;;;;;;19.82;100.00;99628.06;10332657;28;20197;-75
